キエフ/ボリースピリ の空港の天気 - METARとTAF

ボリースピリ国際空港(キエフ) ( UKBB / KBP ) - ウクライナ ボリスピリ (キエフ近郊)
飛行場実況気象(Metar)
観測時間06/23 04:30 EEST (06/23 01:30 UTC)
風向・風速西南西 3m/s
視程10km以上
天気現象
なし
気温12℃
湿度77%
気圧1011hPa
METARUKBB 230130Z 24003MPS CAVOK 12/08 Q1011 R88/CLRD// NOSIG
過去の天気等 Google飛行場航空写真 Wunderground天気予報

過去48時間のMETAR

飛行場予報(TAF)
発表時間: 6/23 02:01 EEST (6/22 23:01 UTC)
予報対象時間: 23日3時 EEST ~ 24日3時 EEST
風向・風速南西 3m/s
視程10km以上
全天の4割程度の雲 雲底高度 1,220m
23日6時 EEST ~ 23日8時 EEST に徐々に
風向・風速南西 5m/s 瞬間風速 10m/s
全天の8割程度の雲 雲底高度 910m
23日12時 EEST ~ 23日15時 EEST に一時的に
視程2,100m
天気現象弱いしゅう雨
全天の8割程度の雲 雲底高度 300m
全天の4割程度の積乱雲 雲底高度 760m
23日15時 EEST ~ 23日22時 EEST に一時的に
風向・風速不定 9m/s 瞬間風速 14m/s
視程2,000m
天気現象雷雨
全天の4割程度の雲 雲底高度 240m
全天の8割程度の積乱雲 雲底高度 460m
TAF UKBB 222301Z 2300/2324 23003MPS 9999 SCT040
BECMG 2303/2305 23005G10MPS BKN030
TEMPO 2309/2312 2100 -SHRA BKN010 SCT025CB
TEMPO 2312/2319 VRB09G14MPS 2000 TSRA SCT008 BKN015CB